createdAt,value
2017-08-20T00:01:03.059Z,6.80
2017-08-20T00:03:32.182Z,6.13
2017-08-20T00:06:01.602Z,5.03
2017-08-20T00:08:29.893Z,4.23
2017-08-20T00:10:59.399Z,8.27
2017-08-20T00:13:28.451Z,5.77
2017-08-20T00:15:57.500Z,11.00
2017-08-20T00:18:25.838Z,9.83
2017-08-20T00:20:54.121Z,5.57
2017-08-20T00:23:22.403Z,6.70
2017-08-20T00:25:51.122Z,5.67
2017-08-20T00:28:20.544Z,3.57
2017-08-20T00:30:50.165Z,7.50
2017-08-20T00:33:18.601Z,4.13
2017-08-20T00:35:46.888Z,16.40
2017-08-20T00:38:15.584Z,9.33
2017-08-20T00:40:45.430Z,7.77
2017-08-20T00:43:13.750Z,4.73
2017-08-20T00:45:43.558Z,9.57
2017-08-20T00:48:13.267Z,4.53
2017-08-20T00:50:41.837Z,5.80
2017-08-20T00:53:11.497Z,6.63
2017-08-20T00:55:40.538Z,5.47
2017-08-20T00:58:09.210Z,9.50
2017-08-20T01:00:37.486Z,5.67
2017-08-20T01:03:06.227Z,7.90
2017-08-20T01:05:35.635Z,8.63
2017-08-20T01:08:03.918Z,7.57
2017-08-20T01:10:33.620Z,9.37
2017-08-20T01:13:01.783Z,8.87
2017-08-20T01:15:31.224Z,9.53
2017-08-20T01:18:00.328Z,5.93
2017-08-20T01:20:28.610Z,7.83
2017-08-20T01:22:56.883Z,9.83
2017-08-20T01:25:26.599Z,10.27
2017-08-20T01:27:55.151Z,14.60
2017-08-20T01:30:24.783Z,7.03
2017-08-20T01:32:53.011Z,5.00
2017-08-20T01:35:22.067Z,11.20
2017-08-20T01:37:51.108Z,8.57
2017-08-20T01:40:19.430Z,13.97
2017-08-20T01:42:47.710Z,11.07
2017-08-20T01:45:17.502Z,14.03
2017-08-20T01:47:45.866Z,10.77
2017-08-20T01:50:14.183Z,12.30
2017-08-20T01:52:43.616Z,9.53
2017-08-20T01:55:12.020Z,8.87
2017-08-20T01:57:40.708Z,10.77
2017-08-20T02:00:08.999Z,14.53
2017-08-20T02:02:37.335Z,8.23
2017-08-20T02:05:06.742Z,15.33
2017-08-20T02:07:35.026Z,12.80
2017-08-20T02:10:03.359Z,7.23
2017-08-20T02:12:32.982Z,8.47
2017-08-20T02:15:01.894Z,9.70
2017-08-20T02:17:31.603Z,6.37
2017-08-20T02:20:00.903Z,6.83
2017-08-20T02:22:29.191Z,6.93
2017-08-20T02:24:58.922Z,10.77
2017-08-20T02:27:28.427Z,11.33
2017-08-20T02:29:58.131Z,9.23
2017-08-20T02:32:26.500Z,10.63
2017-08-20T02:34:55.921Z,15.53
2017-08-20T02:37:24.201Z,10.90
2017-08-20T02:39:52.548Z,11.70
2017-08-20T02:42:20.818Z,9.70
2017-08-20T02:44:50.445Z,9.37
2017-08-20T02:47:19.431Z,13.63
2017-08-20T02:49:48.846Z,6.80
2017-08-20T02:52:17.117Z,8.90
2017-08-20T02:54:45.468Z,10.93
2017-08-20T02:57:14.901Z,6.77
2017-08-20T02:59:44.340Z,17.70
2017-08-20T03:02:13.099Z,9.70
2017-08-20T03:04:42.894Z,13.13
2017-08-20T03:07:11.208Z,16.80
2017-08-20T03:09:39.948Z,10.77
2017-08-20T03:12:08.231Z,12.93
2017-08-20T03:14:37.274Z,9.83
2017-08-20T03:17:05.979Z,8.77
2017-08-20T03:19:34.259Z,17.87
2017-08-20T03:22:02.539Z,8.40
2017-08-20T03:24:30.872Z,5.90
2017-08-20T03:27:00.308Z,15.50
2017-08-20T03:29:28.595Z,12.07
2017-08-20T03:31:56.923Z,10.77
2017-08-20T03:34:25.200Z,9.17
2017-08-20T03:36:53.476Z,13.53
2017-08-20T03:39:21.788Z,8.00
2017-08-20T03:41:50.831Z,11.93
2017-08-20T03:44:19.106Z,8.90
2017-08-20T03:46:48.978Z,16.10
2017-08-20T03:49:18.614Z,15.73
2017-08-20T03:51:47.162Z,7.30
2017-08-20T03:54:15.523Z,6.60
2017-08-20T03:56:43.815Z,19.10
2017-08-20T03:59:12.102Z,13.20
2017-08-20T04:01:40.489Z,15.00
2017-08-20T04:04:08.766Z,9.83
2017-08-20T04:06:38.183Z,14.80
2017-08-20T04:09:06.514Z,9.53
2017-08-20T04:11:34.790Z,9.93
2017-08-20T04:14:04.024Z,13.27
2017-08-20T04:16:33.119Z,13.30
2017-08-20T04:19:03.601Z,13.77
2017-08-20T04:21:32.522Z,25.20
2017-08-20T04:24:00.892Z,16.53
2017-08-20T04:26:29.964Z,15.77
2017-08-20T04:28:59.400Z,16.27
2017-08-20T04:31:28.879Z,12.50
2017-08-20T04:33:57.163Z,12.13
2017-08-20T04:36:25.443Z,8.93
2017-08-20T04:38:53.770Z,12.93
2017-08-20T04:41:23.402Z,11.83
2017-08-20T04:43:51.552Z,9.67
2017-08-20T04:46:20.270Z,14.60
2017-08-20T04:48:48.555Z,13.77
2017-08-20T04:51:16.849Z,16.17
2017-08-20T04:53:46.692Z,9.77
2017-08-20T04:56:16.330Z,11.10
2017-08-20T04:58:44.896Z,32.70
2017-08-20T05:01:13.268Z,15.30
2017-08-20T05:03:41.566Z,13.80
2017-08-20T05:06:11.106Z,10.63
2017-08-20T05:08:40.598Z,11.87
2017-08-20T05:11:08.876Z,18.47
2017-08-20T05:13:37.154Z,12.77
2017-08-20T05:16:05.487Z,9.60
2017-08-20T05:18:33.768Z,11.30
2017-08-20T05:21:03.587Z,13.70
2017-08-20T05:23:31.948Z,13.80
2017-08-20T05:26:00.227Z,14.83
2017-08-20T05:28:29.647Z,19.93
2017-08-20T05:30:57.999Z,15.73
2017-08-20T05:33:26.279Z,20.47
2017-08-20T05:35:54.555Z,14.77
2017-08-20T05:38:23.295Z,13.57
2017-08-20T05:40:51.975Z,15.27
2017-08-20T05:43:20.255Z,11.37
2017-08-20T05:45:49.946Z,33.70
2017-08-20T05:48:18.494Z,20.17
2017-08-20T05:50:46.788Z,12.73
2017-08-20T05:53:15.120Z,13.27
2017-08-20T05:55:44.768Z,12.20
2017-08-20T05:58:13.717Z,13.60
2017-08-20T06:00:42.843Z,19.00
2017-08-20T06:03:11.139Z,12.60
2017-08-20T06:05:42.024Z,19.87
2017-08-20T06:08:10.355Z,16.50
2017-08-20T06:10:39.798Z,13.40
2017-08-20T06:13:08.108Z,14.77
2017-08-20T06:15:37.796Z,15.77
2017-08-20T06:18:06.342Z,15.57
2017-08-20T06:20:34.624Z,14.10
2017-08-20T06:23:02.966Z,12.47
2017-08-20T06:25:31.276Z,12.47
2017-08-20T06:28:00.350Z,12.07
2017-08-20T06:30:29.465Z,12.90
2017-08-20T06:32:58.512Z,14.00
2017-08-20T06:35:26.803Z,14.63
2017-08-20T06:37:55.154Z,15.40
2017-08-20T06:40:23.419Z,9.30
2017-08-20T06:42:51.700Z,15.73
2017-08-20T06:45:20.011Z,16.63
2017-08-20T06:47:49.799Z,11.40
2017-08-20T06:50:19.219Z,14.67
2017-08-20T06:52:48.894Z,12.70
2017-08-20T06:55:17.810Z,12.77
2017-08-20T06:57:46.502Z,11.73
2017-08-20T07:00:14.835Z,18.00
2017-08-20T07:02:43.901Z,11.80
2017-08-20T07:05:12.194Z,15.20
2017-08-20T07:07:40.961Z,14.50
2017-08-20T07:10:10.003Z,11.60
2017-08-20T07:12:38.278Z,14.33
2017-08-20T07:15:06.626Z,13.00
2017-08-20T07:17:35.050Z,17.07
2017-08-20T07:20:05.068Z,12.70
2017-08-20T07:22:33.251Z,20.13
2017-08-20T07:25:02.885Z,9.13
2017-08-20T07:27:31.055Z,12.67
2017-08-20T07:29:59.404Z,12.20
2017-08-20T07:32:27.683Z,13.97
2017-08-20T07:34:55.974Z,19.87
2017-08-20T07:37:25.802Z,18.83
2017-08-20T07:39:54.086Z,16.40
2017-08-20T07:42:22.366Z,10.23
2017-08-20T07:44:50.699Z,10.60
2017-08-20T07:47:19.747Z,15.53
2017-08-20T07:49:48.033Z,17.83
2017-08-20T07:52:17.155Z,16.70
2017-08-20T07:54:46.830Z,13.90
2017-08-20T07:57:19.922Z,11.37
2017-08-20T07:59:48.076Z,14.80
2017-08-20T08:02:16.374Z,11.37
2017-08-20T08:04:44.718Z,9.50
2017-08-20T08:07:13.798Z,8.20
2017-08-20T08:09:42.100Z,11.27
2017-08-20T08:12:11.623Z,15.80
2017-08-20T08:14:39.906Z,11.10
2017-08-20T08:17:08.192Z,15.17
2017-08-20T08:19:38.263Z,14.70
2017-08-20T08:22:06.541Z,14.33
2017-08-20T08:24:35.954Z,11.37
2017-08-20T08:27:05.452Z,8.53
2017-08-20T08:29:33.732Z,14.33
2017-08-20T08:32:02.776Z,9.40
2017-08-20T08:34:32.459Z,7.10
2017-08-20T08:37:01.750Z,8.73
2017-08-20T08:39:30.816Z,14.33
2017-08-20T08:42:00.326Z,12.07
2017-08-20T08:44:28.602Z,7.67
2017-08-20T08:46:56.879Z,8.33
2017-08-20T08:49:26.166Z,9.23
2017-08-20T08:51:54.443Z,7.97
2017-08-20T08:54:22.723Z,11.50
2017-08-20T08:56:52.407Z,9.60
2017-08-20T08:59:22.071Z,10.53
2017-08-20T09:01:51.702Z,10.13
2017-08-20T09:04:19.944Z,10.33
2017-08-20T09:06:48.222Z,9.20
2017-08-20T09:09:16.516Z,4.87
2017-08-20T09:11:46.228Z,10.80
2017-08-20T09:14:14.794Z,11.37
2017-08-20T09:16:43.857Z,5.50
2017-08-20T09:19:12.221Z,6.37
2017-08-20T09:21:42.018Z,5.40
2017-08-20T09:24:11.668Z,9.30
2017-08-20T09:26:41.231Z,5.40
2017-08-20T09:29:10.154Z,9.77
2017-08-20T09:31:38.428Z,6.53
2017-08-20T09:34:06.747Z,5.37
2017-08-20T09:36:35.030Z,10.80
2017-08-20T09:39:03.312Z,7.33
2017-08-20T09:41:33.016Z,8.33
2017-08-20T09:44:02.518Z,4.63
2017-08-20T09:46:31.811Z,3.93
2017-08-20T09:49:00.181Z,7.20
2017-08-20T09:51:29.239Z,7.90
2017-08-20T09:53:58.660Z,7.87
2017-08-20T09:56:27.742Z,9.23
2017-08-20T09:58:56.019Z,7.17
2017-08-20T10:01:24.302Z,4.80
2017-08-20T10:03:53.773Z,5.07
2017-08-20T10:06:22.052Z,8.10
2017-08-20T10:08:50.326Z,7.20
2017-08-20T10:11:18.677Z,6.07
2017-08-20T10:13:46.956Z,6.27
2017-08-20T10:16:16.383Z,7.60
2017-08-20T10:18:45.883Z,9.70
2017-08-20T10:21:14.951Z,3.50
2017-08-20T10:23:43.247Z,2.83
2017-08-20T10:26:11.608Z,12.03
2017-08-20T10:28:39.892Z,5.33
2017-08-20T10:31:08.167Z,4.50
2017-08-20T10:33:37.259Z,4.33
2017-08-20T10:36:05.538Z,7.70
2017-08-20T10:38:34.578Z,8.20
2017-08-20T10:41:03.679Z,10.30
2017-08-20T10:43:31.974Z,5.93
2017-08-20T10:46:00.248Z,3.80
2017-08-20T10:48:28.592Z,4.37
2017-08-20T10:50:56.872Z,8.60
2017-08-20T10:53:25.913Z,6.47
2017-08-20T10:55:54.639Z,5.30
2017-08-20T10:58:22.919Z,3.77
2017-08-20T11:00:51.187Z,3.03
2017-08-20T11:03:21.594Z,7.07
2017-08-20T11:05:51.013Z,7.40
2017-08-20T11:08:19.286Z,8.40
2017-08-20T11:10:48.954Z,3.13
2017-08-20T11:13:17.874Z,5.10
2017-08-20T11:15:46.190Z,5.03
2017-08-20T11:18:14.539Z,6.60
2017-08-20T11:20:43.215Z,5.10
2017-08-20T11:23:12.655Z,3.00
2017-08-20T11:25:41.766Z,4.57
2017-08-20T11:28:10.047Z,2.70
2017-08-20T11:30:38.350Z,3.17
2017-08-20T11:33:08.039Z,4.90
2017-08-20T11:35:36.208Z,4.50
2017-08-20T11:38:04.487Z,4.90
2017-08-20T11:40:32.835Z,6.87
2017-08-20T11:43:01.119Z,4.93
2017-08-20T11:45:29.403Z,2.93
2017-08-20T11:47:59.079Z,4.27
2017-08-20T11:50:27.226Z,3.00
2017-08-20T11:52:55.512Z,5.63
2017-08-20T11:55:23.836Z,3.20
2017-08-20T11:57:52.123Z,4.23
2017-08-20T12:00:21.161Z,5.47
2017-08-20T12:02:49.520Z,4.13
2017-08-20T12:05:19.298Z,7.57
2017-08-20T12:07:47.600Z,7.47
2017-08-20T12:10:15.964Z,2.40
2017-08-20T12:12:44.247Z,4.67
2017-08-20T12:15:12.569Z,3.53
2017-08-20T12:17:42.171Z,2.63
2017-08-20T12:20:14.572Z,6.10
2017-08-20T12:22:44.455Z,5.87
2017-08-20T12:25:12.760Z,1.90
2017-08-20T12:27:42.398Z,5.50
2017-08-20T12:30:11.381Z,2.13
2017-08-20T12:32:41.227Z,4.00
2017-08-20T12:35:09.519Z,4.80
2017-08-20T12:37:37.858Z,2.93
2017-08-20T12:40:06.903Z,2.43
2017-08-20T12:42:35.193Z,3.23
2017-08-20T12:45:03.545Z,3.77
2017-08-20T12:47:31.818Z,6.20
2017-08-20T12:50:01.450Z,4.90
2017-08-20T12:52:29.678Z,3.43
2017-08-20T12:54:59.471Z,7.70
2017-08-20T12:57:27.746Z,5.00
2017-08-20T12:59:57.454Z,4.50
2017-08-20T13:02:26.363Z,2.60
2017-08-20T13:04:54.639Z,6.60
2017-08-20T13:07:22.976Z,4.27
2017-08-20T13:09:51.256Z,4.07
2017-08-20T13:12:20.877Z,5.93
2017-08-20T13:14:50.599Z,5.33
2017-08-20T13:17:20.395Z,3.67
2017-08-20T13:19:48.696Z,4.60
2017-08-20T13:22:18.449Z,5.50
2017-08-20T13:24:47.034Z,4.00
2017-08-20T13:27:16.504Z,5.50
2017-08-20T13:29:46.197Z,4.50
2017-08-20T13:32:15.126Z,4.30
2017-08-20T13:34:43.441Z,3.23
2017-08-20T13:37:11.823Z,4.83
2017-08-20T13:39:40.107Z,5.60
2017-08-20T13:42:08.387Z,6.43
2017-08-20T13:44:38.594Z,3.50
2017-08-20T13:47:08.378Z,6.40
2017-08-20T13:49:37.422Z,7.37
2017-08-20T13:52:06.522Z,5.40
2017-08-20T13:54:34.800Z,4.43
2017-08-20T13:57:03.079Z,6.60
2017-08-20T13:59:32.930Z,3.87
2017-08-20T14:02:01.703Z,7.27
2017-08-20T14:04:30.749Z,5.67
2017-08-20T14:07:00.237Z,3.40
2017-08-20T14:09:29.279Z,3.40
2017-08-20T14:11:57.558Z,6.40
2017-08-20T14:14:27.398Z,4.90
2017-08-20T14:16:55.679Z,6.77
2017-08-20T14:19:23.964Z,5.83
2017-08-20T14:21:52.651Z,4.90
2017-08-20T14:24:21.690Z,2.77
2017-08-20T14:26:49.987Z,5.90
2017-08-20T14:29:19.116Z,9.50
2017-08-20T14:31:48.176Z,7.70
2017-08-20T14:34:17.831Z,4.00
2017-08-20T14:36:47.427Z,7.30
2017-08-20T14:39:16.938Z,3.73
2017-08-20T14:41:45.499Z,6.90
2017-08-20T14:44:14.663Z,4.33
2017-08-20T14:46:44.310Z,3.90
2017-08-20T14:49:13.872Z,5.47
2017-08-20T14:51:42.835Z,6.43
2017-08-20T14:54:11.154Z,5.50
2017-08-20T14:56:40.878Z,5.47
2017-08-20T14:59:09.074Z,7.10
2017-08-20T15:01:38.127Z,4.93
2017-08-20T15:04:07.555Z,4.77
2017-08-20T15:06:36.655Z,7.50
2017-08-20T15:09:05.695Z,5.47
2017-08-20T15:11:34.376Z,5.27
2017-08-20T15:14:02.718Z,5.13
2017-08-20T15:16:32.350Z,8.20
2017-08-20T15:19:00.900Z,7.10
2017-08-20T15:21:30.630Z,8.90
2017-08-20T15:24:00.307Z,4.70
2017-08-20T15:26:28.583Z,4.50
2017-08-20T15:28:58.415Z,6.37
2017-08-20T15:31:26.687Z,4.30
2017-08-20T15:33:55.739Z,3.90
2017-08-20T15:36:25.570Z,5.87
2017-08-20T15:38:54.988Z,6.13
2017-08-20T15:41:23.274Z,3.20
2017-08-20T15:43:51.634Z,6.20
2017-08-20T15:46:20.876Z,7.13
2017-08-20T15:48:49.947Z,8.07
2017-08-20T15:51:18.308Z,4.97
2017-08-20T15:53:46.621Z,6.70
2017-08-20T15:56:16.445Z,6.27
2017-08-20T15:58:44.784Z,5.67
2017-08-20T16:01:13.087Z,6.30
2017-08-20T16:03:42.213Z,3.97
2017-08-20T16:06:11.718Z,5.93
2017-08-20T16:08:40.393Z,6.43
2017-08-20T16:11:08.679Z,4.37
2017-08-20T16:13:37.027Z,5.47
2017-08-20T16:16:06.662Z,5.60
2017-08-20T16:18:35.588Z,5.87
2017-08-20T16:21:04.698Z,5.17
2017-08-20T16:23:33.375Z,3.70
2017-08-20T16:26:03.154Z,7.40
2017-08-20T16:28:34.380Z,4.93
2017-08-20T16:31:03.423Z,2.83
2017-08-20T16:33:31.711Z,3.37
2017-08-20T16:36:00.067Z,6.47
2017-08-20T16:38:28.342Z,3.63
2017-08-20T16:40:57.974Z,6.47
2017-08-20T16:43:26.579Z,3.90
2017-08-20T16:45:54.863Z,4.40
2017-08-20T16:48:24.488Z,6.40
2017-08-20T16:50:54.065Z,3.60
2017-08-20T16:53:22.617Z,6.40
2017-08-20T16:55:50.890Z,4.07
2017-08-20T16:58:20.586Z,2.53
2017-08-20T17:00:48.735Z,4.23
2017-08-20T17:03:17.778Z,2.23
2017-08-20T17:05:46.922Z,3.33
2017-08-20T17:08:15.210Z,3.37
2017-08-20T17:10:43.494Z,4.90
2017-08-20T17:13:11.810Z,3.27
2017-08-20T17:15:40.096Z,5.67
2017-08-20T17:18:08.388Z,5.20
2017-08-20T17:20:37.795Z,5.33
2017-08-20T17:23:06.472Z,9.37
2017-08-20T17:25:36.551Z,11.53
2017-08-20T17:28:04.862Z,5.23
2017-08-20T17:30:33.935Z,5.33
2017-08-20T17:33:03.567Z,6.03
2017-08-20T17:35:32.555Z,4.40
2017-08-20T17:38:02.352Z,4.57
2017-08-20T17:40:31.038Z,4.80
2017-08-20T17:43:00.505Z,8.90
2017-08-20T17:45:28.779Z,5.63
2017-08-20T17:47:57.064Z,8.83
2017-08-20T17:50:26.771Z,5.03
2017-08-20T17:52:54.928Z,5.10
2017-08-20T17:55:23.970Z,8.77
2017-08-20T17:57:52.301Z,8.90
2017-08-20T18:00:20.989Z,10.33
2017-08-20T18:02:50.096Z,4.07
2017-08-20T18:05:18.435Z,7.13
2017-08-20T18:07:46.736Z,4.67
2017-08-20T18:10:16.389Z,8.33
2017-08-20T18:12:46.143Z,3.93
2017-08-20T18:15:15.205Z,3.60
2017-08-20T18:17:44.248Z,5.03
2017-08-20T18:20:12.628Z,5.07
2017-08-20T18:22:42.454Z,4.30
2017-08-20T18:25:10.755Z,6.67
2017-08-20T18:27:39.105Z,3.30
2017-08-20T18:30:08.519Z,8.50
2017-08-20T18:32:36.814Z,3.60
2017-08-20T18:35:06.301Z,3.23
2017-08-20T18:37:35.347Z,7.30
2017-08-20T18:40:03.628Z,5.40
2017-08-20T18:42:32.091Z,3.13
2017-08-20T18:45:00.377Z,4.87
2017-08-20T18:47:30.004Z,5.37
2017-08-20T18:49:59.731Z,5.20
2017-08-20T18:52:28.774Z,4.57
2017-08-20T18:54:58.394Z,6.10
2017-08-20T18:57:28.115Z,4.30
2017-08-20T18:59:56.400Z,5.40
2017-08-20T19:02:26.198Z,4.10
2017-08-20T19:04:55.866Z,6.53
2017-08-20T19:07:24.410Z,4.00
2017-08-20T19:09:54.043Z,3.83
2017-08-20T19:12:22.634Z,4.27
2017-08-20T19:14:50.921Z,5.30
2017-08-20T19:17:19.614Z,5.77
2017-08-20T19:19:49.334Z,2.83
2017-08-20T19:22:17.505Z,2.97
2017-08-20T19:24:47.165Z,2.67
2017-08-20T19:27:15.784Z,6.80
2017-08-20T19:29:44.482Z,3.23
2017-08-20T19:32:13.552Z,4.00
2017-08-20T19:34:41.902Z,4.90
2017-08-20T19:37:11.562Z,4.80
2017-08-20T19:39:40.111Z,6.00
2017-08-20T19:42:08.451Z,3.33
2017-08-20T19:44:37.859Z,3.77
2017-08-20T19:47:06.911Z,3.33
2017-08-20T19:49:35.388Z,8.53
2017-08-20T19:52:04.442Z,3.57
2017-08-20T19:54:32.718Z,2.67
2017-08-20T19:57:02.430Z,3.50
2017-08-20T19:59:30.983Z,3.30
2017-08-20T20:02:00.618Z,3.47
2017-08-20T20:04:29.243Z,6.10
2017-08-20T20:06:57.524Z,3.40
2017-08-20T20:09:25.799Z,4.37
2017-08-20T20:11:54.556Z,14.63
2017-08-20T20:14:23.236Z,3.03
2017-08-20T20:16:52.874Z,2.93
2017-08-20T20:19:21.599Z,4.67
2017-08-20T20:21:49.872Z,5.67
2017-08-20T20:24:18.147Z,10.80
2017-08-20T20:26:48.671Z,2.97
2017-08-20T20:29:18.097Z,3.23
2017-08-20T20:31:47.154Z,2.60
2017-08-20T20:34:16.267Z,5.27
2017-08-20T20:36:44.559Z,2.57
2017-08-20T20:39:12.843Z,6.47
2017-08-20T20:41:41.200Z,2.23
2017-08-20T20:44:09.875Z,7.33
2017-08-20T20:46:39.297Z,3.13
2017-08-20T20:49:07.990Z,3.40
2017-08-20T20:51:37.774Z,9.63
2017-08-20T20:54:06.064Z,3.40
2017-08-20T20:56:34.480Z,3.77
2017-08-20T20:59:04.102Z,6.77
2017-08-20T21:01:32.654Z,7.43
2017-08-20T21:04:01.025Z,4.10
2017-08-20T21:06:29.723Z,4.80
2017-08-20T21:08:58.014Z,9.00
2017-08-20T21:11:26.723Z,4.43
2017-08-20T21:13:55.766Z,4.43
2017-08-20T21:16:25.184Z,5.37
2017-08-20T21:18:53.518Z,6.73
2017-08-20T21:21:22.567Z,4.33
2017-08-20T21:23:50.843Z,2.93
2017-08-20T21:26:19.167Z,4.20
2017-08-20T21:28:47.459Z,6.37
2017-08-20T21:31:17.113Z,4.30
2017-08-20T21:33:46.663Z,2.60
2017-08-20T21:36:15.964Z,4.87
2017-08-20T21:38:44.257Z,8.53
2017-08-20T21:41:13.146Z,7.23
2017-08-20T21:43:42.274Z,7.63
2017-08-20T21:46:10.967Z,4.63
2017-08-20T21:48:39.309Z,2.93
2017-08-20T21:51:07.988Z,2.90
2017-08-20T21:53:36.271Z,5.73
2017-08-20T21:56:04.627Z,2.67
2017-08-20T21:58:32.915Z,5.90
2017-08-20T22:01:01.208Z,3.43
2017-08-20T22:03:30.706Z,2.90
2017-08-20T22:05:58.995Z,6.03
2017-08-20T22:08:28.787Z,7.90
2017-08-20T22:10:57.539Z,4.87
2017-08-20T22:13:25.844Z,4.80
2017-08-20T22:15:55.667Z,4.77
2017-08-20T22:18:24.023Z,2.80
2017-08-20T22:20:53.076Z,3.53
2017-08-20T22:23:21.380Z,2.77
2017-08-20T22:25:51.092Z,4.90
2017-08-20T22:28:20.771Z,4.60
2017-08-20T22:30:49.474Z,3.50
2017-08-20T22:33:18.579Z,4.67
2017-08-20T22:36:19.539Z,5.40
2017-08-20T22:38:47.871Z,6.17
2017-08-20T22:41:16.157Z,4.10
2017-08-20T22:43:44.460Z,2.93
2017-08-20T22:46:12.812Z,4.03
2017-08-20T22:48:42.497Z,3.63
2017-08-20T22:51:10.816Z,3.70
2017-08-20T22:53:39.554Z,3.07
2017-08-20T22:56:07.850Z,5.63
2017-08-20T22:58:36.518Z,3.30
2017-08-20T23:01:05.228Z,3.47
2017-08-20T23:03:35.027Z,2.80
2017-08-20T23:06:03.311Z,4.43
2017-08-20T23:08:31.646Z,3.60
2017-08-20T23:10:59.932Z,3.90
2017-08-20T23:13:28.227Z,5.90
2017-08-20T23:15:57.318Z,3.57
2017-08-20T23:18:25.599Z,4.17
2017-08-20T23:20:53.889Z,6.37
2017-08-20T23:23:22.239Z,2.97
2017-08-20T23:25:52.026Z,4.90
2017-08-20T23:28:20.748Z,3.43
2017-08-20T23:30:49.147Z,4.00
2017-08-20T23:33:18.934Z,3.10
2017-08-20T23:35:47.223Z,2.67
2017-08-20T23:38:15.567Z,5.83
2017-08-20T23:40:45.197Z,10.00
2017-08-20T23:43:14.516Z,4.43
2017-08-20T23:45:43.257Z,4.53
2017-08-20T23:48:13.074Z,6.80
2017-08-20T23:50:41.831Z,3.77
2017-08-20T23:53:11.316Z,3.80
2017-08-20T23:55:39.603Z,3.40
